sensor_id;sensor_type;location;lat;lon;timestamp;P1;durP1;ratioP1;P2;durP2;ratioP2
10100;SDS011;5090;51.258;4.436;2023-08-06T00:00:00;4.00;;;2.90;;
10100;SDS011;5090;51.258;4.436;2023-08-06T00:02:28;3.43;;;2.50;;
10100;SDS011;5090;51.258;4.436;2023-08-06T00:04:56;3.03;;;2.50;;
10100;SDS011;5090;51.258;4.436;2023-08-06T00:07:24;3.60;;;2.57;;
10100;SDS011;5090;51.258;4.436;2023-08-06T00:09:53;3.27;;;2.53;;
10100;SDS011;5090;51.258;4.436;2023-08-06T00:12:21;3.77;;;2.80;;
10100;SDS011;5090;51.258;4.436;2023-08-06T00:14:50;4.40;;;2.70;;
10100;SDS011;5090;51.258;4.436;2023-08-06T00:17:18;4.10;;;2.70;;
10100;SDS011;5090;51.258;4.436;2023-08-06T00:19:46;2.70;;;2.10;;
10100;SDS011;5090;51.258;4.436;2023-08-06T00:22:14;3.17;;;2.47;;
10100;SDS011;5090;51.258;4.436;2023-08-06T00:24:42;3.60;;;2.47;;
10100;SDS011;5090;51.258;4.436;2023-08-06T00:27:11;6.23;;;2.70;;
10100;SDS011;5090;51.258;4.436;2023-08-06T00:29:39;2.50;;;2.03;;
10100;SDS011;5090;51.258;4.436;2023-08-06T00:32:07;2.10;;;1.73;;
10100;SDS011;5090;51.258;4.436;2023-08-06T00:34:35;2.37;;;2.17;;
10100;SDS011;5090;51.258;4.436;2023-08-06T00:37:03;3.17;;;2.30;;
10100;SDS011;5090;51.258;4.436;2023-08-06T00:39:32;4.43;;;2.27;;
10100;SDS011;5090;51.258;4.436;2023-08-06T00:42:00;2.37;;;2.17;;
10100;SDS011;5090;51.258;4.436;2023-08-06T00:44:28;2.90;;;1.90;;
10100;SDS011;5090;51.258;4.436;2023-08-06T00:46:56;4.73;;;2.20;;
10100;SDS011;5090;51.258;4.436;2023-08-06T00:49:24;1.97;;;1.83;;
10100;SDS011;5090;51.258;4.436;2023-08-06T00:51:53;4.03;;;2.33;;
10100;SDS011;5090;51.258;4.436;2023-08-06T00:54:22;3.60;;;2.47;;
10100;SDS011;5090;51.258;4.436;2023-08-06T00:56:50;2.60;;;2.40;;
10100;SDS011;5090;51.258;4.436;2023-08-06T00:59:18;5.63;;;2.93;;
10100;SDS011;5090;51.258;4.436;2023-08-06T01:01:46;4.80;;;2.80;;
10100;SDS011;5090;51.258;4.436;2023-08-06T01:04:14;5.10;;;3.20;;
10100;SDS011;5090;51.258;4.436;2023-08-06T01:06:47;6.97;;;3.20;;
10100;SDS011;5090;51.258;4.436;2023-08-06T01:09:20;4.30;;;3.10;;
10100;SDS011;5090;51.258;4.436;2023-08-06T01:11:50;6.23;;;2.90;;
10100;SDS011;5090;51.258;4.436;2023-08-06T01:14:15;4.53;;;2.80;;
10100;SDS011;5090;51.258;4.436;2023-08-06T01:16:41;3.50;;;3.20;;
10100;SDS011;5090;51.258;4.436;2023-08-06T01:19:16;6.43;;;3.50;;
10100;SDS011;5090;51.258;4.436;2023-08-06T01:21:43;4.00;;;3.00;;
10100;SDS011;5090;51.258;4.436;2023-08-06T01:24:11;6.17;;;3.10;;
10100;SDS011;5090;51.258;4.436;2023-08-06T01:26:42;4.27;;;3.27;;
10100;SDS011;5090;51.258;4.436;2023-08-06T01:29:11;4.03;;;3.07;;
10100;SDS011;5090;51.258;4.436;2023-08-06T01:31:38;3.50;;;3.07;;
10100;SDS011;5090;51.258;4.436;2023-08-06T01:34:09;8.70;;;3.50;;
10100;SDS011;5090;51.258;4.436;2023-08-06T01:36:34;3.60;;;2.90;;
10100;SDS011;5090;51.258;4.436;2023-08-06T01:39:02;4.27;;;2.77;;
10100;SDS011;5090;51.258;4.436;2023-08-06T01:41:31;4.07;;;3.40;;
10100;SDS011;5090;51.258;4.436;2023-08-06T01:43:59;3.20;;;2.67;;
10100;SDS011;5090;51.258;4.436;2023-08-06T01:46:27;4.53;;;2.77;;
10100;SDS011;5090;51.258;4.436;2023-08-06T01:48:55;3.43;;;2.43;;
10100;SDS011;5090;51.258;4.436;2023-08-06T01:51:25;3.27;;;2.87;;
10100;SDS011;5090;51.258;4.436;2023-08-06T01:53:54;2.70;;;2.50;;
10100;SDS011;5090;51.258;4.436;2023-08-06T01:56:22;6.07;;;3.30;;
10100;SDS011;5090;51.258;4.436;2023-08-06T01:58:50;6.17;;;2.67;;
10100;SDS011;5090;51.258;4.436;2023-08-06T02:01:18;3.70;;;2.40;;
10100;SDS011;5090;51.258;4.436;2023-08-06T02:03:46;2.80;;;2.23;;
10100;SDS011;5090;51.258;4.436;2023-08-06T02:06:15;2.60;;;2.40;;
10100;SDS011;5090;51.258;4.436;2023-08-06T02:08:43;4.07;;;2.93;;
10100;SDS011;5090;51.258;4.436;2023-08-06T02:11:11;4.60;;;2.43;;
10100;SDS011;5090;51.258;4.436;2023-08-06T02:13:39;3.73;;;2.23;;
10100;SDS011;5090;51.258;4.436;2023-08-06T02:16:07;2.50;;;2.10;;
10100;SDS011;5090;51.258;4.436;2023-08-06T02:18:36;2.50;;;2.00;;
10100;SDS011;5090;51.258;4.436;2023-08-06T02:21:05;3.23;;;2.13;;
10100;SDS011;5090;51.258;4.436;2023-08-06T02:23:33;2.87;;;1.97;;
10100;SDS011;5090;51.258;4.436;2023-08-06T02:26:02;1.97;;;1.70;;
10100;SDS011;5090;51.258;4.436;2023-08-06T02:28:30;2.47;;;1.90;;
10100;SDS011;5090;51.258;4.436;2023-08-06T02:30:57;3.20;;;2.43;;
10100;SDS011;5090;51.258;4.436;2023-08-06T02:33:26;6.43;;;2.23;;
10100;SDS011;5090;51.258;4.436;2023-08-06T02:35:59;3.17;;;2.33;;
10100;SDS011;5090;51.258;4.436;2023-08-06T02:38:27;2.10;;;1.90;;
10100;SDS011;5090;51.258;4.436;2023-08-06T02:40:55;2.20;;;1.90;;
10100;SDS011;5090;51.258;4.436;2023-08-06T02:43:23;4.60;;;2.00;;
10100;SDS011;5090;51.258;4.436;2023-08-06T02:45:51;1.67;;;1.57;;
10100;SDS011;5090;51.258;4.436;2023-08-06T02:48:20;4.10;;;1.80;;
10100;SDS011;5090;51.258;4.436;2023-08-06T02:50:48;2.97;;;1.43;;
10100;SDS011;5090;51.258;4.436;2023-08-06T02:53:16;1.83;;;1.70;;
10100;SDS011;5090;51.258;4.436;2023-08-06T02:55:46;1.57;;;0.97;;
10100;SDS011;5090;51.258;4.436;2023-08-06T02:58:14;3.83;;;1.50;;
10100;SDS011;5090;51.258;4.436;2023-08-06T03:00:43;1.90;;;1.10;;
10100;SDS011;5090;51.258;4.436;2023-08-06T03:03:11;1.30;;;1.20;;
10100;SDS011;5090;51.258;4.436;2023-08-06T03:05:39;4.43;;;0.93;;
10100;SDS011;5090;51.258;4.436;2023-08-06T03:08:07;4.27;;;1.10;;
10100;SDS011;5090;51.258;4.436;2023-08-06T03:10:35;0.70;;;0.70;;
10100;SDS011;5090;51.258;4.436;2023-08-06T03:13:03;4.20;;;0.80;;
10100;SDS011;5090;51.258;4.436;2023-08-06T03:15:32;1.40;;;0.80;;
10100;SDS011;5090;51.258;4.436;2023-08-06T03:18:00;3.50;;;0.93;;
10100;SDS011;5090;51.258;4.436;2023-08-06T03:20:28;0.90;;;0.90;;
10100;SDS011;5090;51.258;4.436;2023-08-06T03:22:56;2.73;;;2.07;;
10100;SDS011;5090;51.258;4.436;2023-08-06T03:25:25;1.73;;;1.00;;
10100;SDS011;5090;51.258;4.436;2023-08-06T03:27:53;2.63;;;0.97;;
10100;SDS011;5090;51.258;4.436;2023-08-06T03:30:21;1.53;;;1.23;;
10100;SDS011;5090;51.258;4.436;2023-08-06T03:32:49;1.73;;;1.20;;
10100;SDS011;5090;51.258;4.436;2023-08-06T03:35:18;0.80;;;0.80;;
10100;SDS011;5090;51.258;4.436;2023-08-06T03:37:46;1.37;;;1.00;;
10100;SDS011;5090;51.258;4.436;2023-08-06T03:40:15;1.30;;;1.20;;
10100;SDS011;5090;51.258;4.436;2023-08-06T03:42:43;1.20;;;1.10;;
10100;SDS011;5090;51.258;4.436;2023-08-06T03:45:11;2.33;;;1.10;;
10100;SDS011;5090;51.258;4.436;2023-08-06T03:47:39;2.70;;;1.30;;
10100;SDS011;5090;51.258;4.436;2023-08-06T03:50:08;1.43;;;1.00;;
10100;SDS011;5090;51.258;4.436;2023-08-06T03:52:36;1.73;;;0.97;;
10100;SDS011;5090;51.258;4.436;2023-08-06T03:55:04;0.80;;;0.80;;
10100;SDS011;5090;51.258;4.436;2023-08-06T03:57:32;1.33;;;1.00;;
10100;SDS011;5090;51.258;4.436;2023-08-06T04:00:01;3.07;;;1.00;;
10100;SDS011;5090;51.258;4.436;2023-08-06T04:02:29;1.27;;;0.90;;
10100;SDS011;5090;51.258;4.436;2023-08-06T04:04:57;3.80;;;1.10;;
10100;SDS011;5090;51.258;4.436;2023-08-06T04:07:25;1.37;;;1.17;;
10100;SDS011;5090;51.258;4.436;2023-08-06T04:09:54;6.07;;;1.20;;
10100;SDS011;5090;51.258;4.436;2023-08-06T04:12:22;4.47;;;2.20;;
10100;SDS011;5090;51.258;4.436;2023-08-06T04:14:50;2.00;;;1.30;;
10100;SDS011;5090;51.258;4.436;2023-08-06T04:17:18;2.23;;;1.30;;
10100;SDS011;5090;51.258;4.436;2023-08-06T04:19:50;1.20;;;1.10;;
10100;SDS011;5090;51.258;4.436;2023-08-06T04:22:18;2.57;;;1.30;;
10100;SDS011;5090;51.258;4.436;2023-08-06T04:24:46;3.20;;;1.70;;
10100;SDS011;5090;51.258;4.436;2023-08-06T04:27:15;4.87;;;2.70;;
10100;SDS011;5090;51.258;4.436;2023-08-06T04:29:43;4.07;;;2.90;;
10100;SDS011;5090;51.258;4.436;2023-08-06T04:32:11;7.93;;;4.47;;
10100;SDS011;5090;51.258;4.436;2023-08-06T04:34:39;10.00;;;5.47;;
10100;SDS011;5090;51.258;4.436;2023-08-06T04:37:07;12.07;;;5.87;;
10100;SDS011;5090;51.258;4.436;2023-08-06T04:39:35;13.10;;;6.43;;
10100;SDS011;5090;51.258;4.436;2023-08-06T04:42:04;9.70;;;5.63;;
10100;SDS011;5090;51.258;4.436;2023-08-06T04:44:32;8.57;;;5.60;;
10100;SDS011;5090;51.258;4.436;2023-08-06T04:47:00;10.00;;;6.13;;
10100;SDS011;5090;51.258;4.436;2023-08-06T04:49:28;13.57;;;6.47;;
10100;SDS011;5090;51.258;4.436;2023-08-06T04:51:57;10.77;;;6.60;;
10100;SDS011;5090;51.258;4.436;2023-08-06T04:54:25;14.00;;;6.53;;
10100;SDS011;5090;51.258;4.436;2023-08-06T04:56:53;10.57;;;6.37;;
10100;SDS011;5090;51.258;4.436;2023-08-06T04:59:21;14.37;;;6.73;;
10100;SDS011;5090;51.258;4.436;2023-08-06T05:01:49;13.73;;;6.13;;
10100;SDS011;5090;51.258;4.436;2023-08-06T05:04:18;13.33;;;5.17;;
10100;SDS011;5090;51.258;4.436;2023-08-06T05:06:46;13.23;;;5.30;;
10100;SDS011;5090;51.258;4.436;2023-08-06T05:09:14;8.93;;;4.10;;
10100;SDS011;5090;51.258;4.436;2023-08-06T05:11:42;10.57;;;4.27;;
10100;SDS011;5090;51.258;4.436;2023-08-06T05:14:11;13.57;;;4.10;;
10100;SDS011;5090;51.258;4.436;2023-08-06T05:16:39;15.57;;;4.63;;
10100;SDS011;5090;51.258;4.436;2023-08-06T05:19:07;13.87;;;4.10;;
10100;SDS011;5090;51.258;4.436;2023-08-06T05:21:35;15.27;;;3.73;;
10100;SDS011;5090;51.258;4.436;2023-08-06T05:24:04;17.30;;;4.00;;
10100;SDS011;5090;51.258;4.436;2023-08-06T05:26:32;21.70;;;4.90;;
10100;SDS011;5090;51.258;4.436;2023-08-06T05:29:00;9.87;;;4.00;;
10100;SDS011;5090;51.258;4.436;2023-08-06T05:31:28;10.70;;;3.50;;
10100;SDS011;5090;51.258;4.436;2023-08-06T05:33:57;9.37;;;3.80;;
10100;SDS011;5090;51.258;4.436;2023-08-06T05:36:25;8.57;;;2.73;;
10100;SDS011;5090;51.258;4.436;2023-08-06T05:38:53;9.63;;;3.60;;
10100;SDS011;5090;51.258;4.436;2023-08-06T05:41:21;13.63;;;3.87;;
10100;SDS011;5090;51.258;4.436;2023-08-06T05:43:49;9.07;;;3.13;;
10100;SDS011;5090;51.258;4.436;2023-08-06T05:46:18;9.83;;;2.70;;
10100;SDS011;5090;51.258;4.436;2023-08-06T05:48:46;7.93;;;2.53;;
10100;SDS011;5090;51.258;4.436;2023-08-06T05:51:14;10.57;;;2.43;;
10100;SDS011;5090;51.258;4.436;2023-08-06T05:53:42;8.47;;;2.57;;
10100;SDS011;5090;51.258;4.436;2023-08-06T05:56:11;13.87;;;2.93;;
10100;SDS011;5090;51.258;4.436;2023-08-06T05:58:39;9.87;;;2.87;;
10100;SDS011;5090;51.258;4.436;2023-08-06T06:01:07;9.20;;;3.30;;
10100;SDS011;5090;51.258;4.436;2023-08-06T06:03:35;7.00;;;2.80;;
10100;SDS011;5090;51.258;4.436;2023-08-06T06:06:03;9.47;;;2.90;;
10100;SDS011;5090;51.258;4.436;2023-08-06T06:08:32;12.03;;;3.37;;
10100;SDS011;5090;51.258;4.436;2023-08-06T06:11:00;13.07;;;3.07;;
10100;SDS011;5090;51.258;4.436;2023-08-06T06:13:28;13.00;;;2.87;;
10100;SDS011;5090;51.258;4.436;2023-08-06T06:15:56;7.67;;;2.70;;
10100;SDS011;5090;51.258;4.436;2023-08-06T06:18:24;9.00;;;3.27;;
10100;SDS011;5090;51.258;4.436;2023-08-06T06:20:53;17.20;;;3.70;;
10100;SDS011;5090;51.258;4.436;2023-08-06T06:23:21;9.97;;;3.00;;
10100;SDS011;5090;51.258;4.436;2023-08-06T06:25:49;4.67;;;2.90;;
10100;SDS011;5090;51.258;4.436;2023-08-06T06:28:20;12.57;;;3.37;;
10100;SDS011;5090;51.258;4.436;2023-08-06T06:30:48;9.20;;;3.43;;
10100;SDS011;5090;51.258;4.436;2023-08-06T06:33:16;8.30;;;3.60;;
10100;SDS011;5090;51.258;4.436;2023-08-06T06:35:45;14.57;;;3.60;;
10100;SDS011;5090;51.258;4.436;2023-08-06T06:38:13;12.27;;;3.33;;
10100;SDS011;5090;51.258;4.436;2023-08-06T06:40:41;12.90;;;3.93;;
10100;SDS011;5090;51.258;4.436;2023-08-06T06:43:09;8.93;;;3.67;;
10100;SDS011;5090;51.258;4.436;2023-08-06T06:45:38;11.40;;;4.57;;
10100;SDS011;5090;51.258;4.436;2023-08-06T06:48:06;12.40;;;4.40;;
10100;SDS011;5090;51.258;4.436;2023-08-06T06:50:35;11.10;;;4.00;;
10100;SDS011;5090;51.258;4.436;2023-08-06T06:53:02;16.07;;;4.30;;
10100;SDS011;5090;51.258;4.436;2023-08-06T06:55:30;14.33;;;3.53;;
10100;SDS011;5090;51.258;4.436;2023-08-06T06:57:58;12.33;;;2.70;;
10100;SDS011;5090;51.258;4.436;2023-08-06T07:00:27;12.50;;;3.37;;
10100;SDS011;5090;51.258;4.436;2023-08-06T07:02:55;10.77;;;2.03;;
10100;SDS011;5090;51.258;4.436;2023-08-06T07:05:23;11.70;;;1.50;;
10100;SDS011;5090;51.258;4.436;2023-08-06T07:07:52;10.27;;;1.47;;
10100;SDS011;5090;51.258;4.436;2023-08-06T07:10:20;12.93;;;1.43;;
10100;SDS011;5090;51.258;4.436;2023-08-06T07:12:48;5.20;;;1.37;;
10100;SDS011;5090;51.258;4.436;2023-08-06T07:15:17;5.70;;;1.37;;
10100;SDS011;5090;51.258;4.436;2023-08-06T07:17:45;6.57;;;1.50;;
10100;SDS011;5090;51.258;4.436;2023-08-06T07:20:13;6.47;;;1.47;;
10100;SDS011;5090;51.258;4.436;2023-08-06T07:22:41;10.77;;;1.40;;
10100;SDS011;5090;51.258;4.436;2023-08-06T07:25:09;14.10;;;1.70;;
10100;SDS011;5090;51.258;4.436;2023-08-06T07:27:38;8.40;;;1.40;;
10100;SDS011;5090;51.258;4.436;2023-08-06T07:30:06;12.60;;;2.23;;
10100;SDS011;5090;51.258;4.436;2023-08-06T07:32:34;10.47;;;1.50;;
10100;SDS011;5090;51.258;4.436;2023-08-06T07:35:03;9.87;;;1.90;;
10100;SDS011;5090;51.258;4.436;2023-08-06T07:37:31;11.00;;;1.50;;
10100;SDS011;5090;51.258;4.436;2023-08-06T07:39:59;12.43;;;2.10;;
10100;SDS011;5090;51.258;4.436;2023-08-06T07:42:27;15.47;;;1.93;;
10100;SDS011;5090;51.258;4.436;2023-08-06T07:44:56;12.30;;;4.23;;
10100;SDS011;5090;51.258;4.436;2023-08-06T07:47:24;11.50;;;1.80;;
10100;SDS011;5090;51.258;4.436;2023-08-06T07:49:52;10.90;;;1.90;;
10100;SDS011;5090;51.258;4.436;2023-08-06T07:52:20;14.57;;;2.23;;
10100;SDS011;5090;51.258;4.436;2023-08-06T07:54:48;10.53;;;2.20;;
10100;SDS011;5090;51.258;4.436;2023-08-06T07:57:17;7.53;;;1.80;;
10100;SDS011;5090;51.258;4.436;2023-08-06T07:59:45;8.50;;;1.30;;
10100;SDS011;5090;51.258;4.436;2023-08-06T08:02:13;5.70;;;1.43;;
10100;SDS011;5090;51.258;4.436;2023-08-06T08:04:41;10.77;;;1.67;;
10100;SDS011;5090;51.258;4.436;2023-08-06T08:07:09;7.70;;;1.57;;
10100;SDS011;5090;51.258;4.436;2023-08-06T08:09:38;7.43;;;1.50;;
10100;SDS011;5090;51.258;4.436;2023-08-06T08:12:06;11.10;;;1.60;;
10100;SDS011;5090;51.258;4.436;2023-08-06T08:14:35;10.23;;;1.97;;
10100;SDS011;5090;51.258;4.436;2023-08-06T08:17:04;9.63;;;2.30;;
10100;SDS011;5090;51.258;4.436;2023-08-06T08:19:33;9.53;;;1.80;;
10100;SDS011;5090;51.258;4.436;2023-08-06T08:22:01;11.97;;;1.57;;
10100;SDS011;5090;51.258;4.436;2023-08-06T08:24:30;14.43;;;1.87;;
10100;SDS011;5090;51.258;4.436;2023-08-06T08:26:58;11.30;;;1.63;;
10100;SDS011;5090;51.258;4.436;2023-08-06T08:29:26;12.83;;;2.10;;
10100;SDS011;5090;51.258;4.436;2023-08-06T08:31:55;11.90;;;2.13;;
10100;SDS011;5090;51.258;4.436;2023-08-06T08:34:23;9.47;;;1.63;;
10100;SDS011;5090;51.258;4.436;2023-08-06T08:36:51;5.87;;;2.23;;
10100;SDS011;5090;51.258;4.436;2023-08-06T08:39:19;12.03;;;2.23;;
10100;SDS011;5090;51.258;4.436;2023-08-06T08:41:47;11.03;;;1.80;;
10100;SDS011;5090;51.258;4.436;2023-08-06T08:44:16;7.70;;;1.60;;
10100;SDS011;5090;51.258;4.436;2023-08-06T08:46:44;10.83;;;1.90;;
10100;SDS011;5090;51.258;4.436;2023-08-06T08:49:12;13.27;;;2.00;;
10100;SDS011;5090;51.258;4.436;2023-08-06T08:51:40;11.53;;;1.97;;
10100;SDS011;5090;51.258;4.436;2023-08-06T08:54:08;11.27;;;1.70;;
10100;SDS011;5090;51.258;4.436;2023-08-06T08:56:37;14.93;;;2.10;;
10100;SDS011;5090;51.258;4.436;2023-08-06T08:59:05;12.37;;;1.90;;
10100;SDS011;5090;51.258;4.436;2023-08-06T09:01:33;11.60;;;2.17;;
10100;SDS011;5090;51.258;4.436;2023-08-06T09:04:01;15.47;;;2.27;;
10100;SDS011;5090;51.258;4.436;2023-08-06T09:06:29;9.07;;;2.00;;
10100;SDS011;5090;51.258;4.436;2023-08-06T09:09:06;13.90;;;2.10;;
10100;SDS011;5090;51.258;4.436;2023-08-06T09:11:30;8.80;;;1.73;;
10100;SDS011;5090;51.258;4.436;2023-08-06T09:13:58;9.27;;;1.53;;
10100;SDS011;5090;51.258;4.436;2023-08-06T09:16:26;6.23;;;1.17;;
10100;SDS011;5090;51.258;4.436;2023-08-06T09:18:54;3.57;;;1.13;;
10100;SDS011;5090;51.258;4.436;2023-08-06T09:21:23;5.47;;;1.23;;
10100;SDS011;5090;51.258;4.436;2023-08-06T09:23:51;5.17;;;1.20;;
10100;SDS011;5090;51.258;4.436;2023-08-06T09:26:19;6.93;;;1.07;;
10100;SDS011;5090;51.258;4.436;2023-08-06T09:28:47;5.50;;;0.90;;
10100;SDS011;5090;51.258;4.436;2023-08-06T09:31:15;5.47;;;1.07;;
10100;SDS011;5090;51.258;4.436;2023-08-06T09:33:44;3.47;;;1.20;;
10100;SDS011;5090;51.258;4.436;2023-08-06T09:36:12;8.37;;;2.10;;
10100;SDS011;5090;51.258;4.436;2023-08-06T09:38:40;6.87;;;1.40;;
10100;SDS011;5090;51.258;4.436;2023-08-06T09:41:08;5.93;;;1.77;;
10100;SDS011;5090;51.258;4.436;2023-08-06T09:43:41;6.17;;;1.50;;
10100;SDS011;5090;51.258;4.436;2023-08-06T09:46:11;7.10;;;1.27;;
10100;SDS011;5090;51.258;4.436;2023-08-06T09:48:39;8.63;;;1.87;;
10100;SDS011;5090;51.258;4.436;2023-08-06T09:51:07;6.03;;;1.50;;
10100;SDS011;5090;51.258;4.436;2023-08-06T09:53:35;6.37;;;1.40;;
10100;SDS011;5090;51.258;4.436;2023-08-06T09:56:03;5.63;;;1.10;;
10100;SDS011;5090;51.258;4.436;2023-08-06T09:58:32;5.70;;;0.80;;
10100;SDS011;5090;51.258;4.436;2023-08-06T10:01:00;2.57;;;1.27;;
10100;SDS011;5090;51.258;4.436;2023-08-06T10:03:28;7.50;;;1.00;;
10100;SDS011;5090;51.258;4.436;2023-08-06T10:05:56;6.10;;;1.23;;
10100;SDS011;5090;51.258;4.436;2023-08-06T10:08:24;6.40;;;0.80;;
10100;SDS011;5090;51.258;4.436;2023-08-06T10:10:52;8.60;;;1.23;;
10100;SDS011;5090;51.258;4.436;2023-08-06T10:13:20;8.40;;;1.40;;
10100;SDS011;5090;51.258;4.436;2023-08-06T10:15:49;10.83;;;1.47;;
10100;SDS011;5090;51.258;4.436;2023-08-06T10:18:17;11.90;;;2.67;;
10100;SDS011;5090;51.258;4.436;2023-08-06T10:20:45;6.43;;;1.20;;
10100;SDS011;5090;51.258;4.436;2023-08-06T10:23:13;6.70;;;1.20;;
10100;SDS011;5090;51.258;4.436;2023-08-06T10:25:42;7.53;;;1.40;;
10100;SDS011;5090;51.258;4.436;2023-08-06T10:28:10;10.40;;;1.27;;
10100;SDS011;5090;51.258;4.436;2023-08-06T10:30:43;11.07;;;1.40;;
10100;SDS011;5090;51.258;4.436;2023-08-06T10:33:10;8.53;;;1.33;;
10100;SDS011;5090;51.258;4.436;2023-08-06T10:35:42;9.50;;;1.20;;
10100;SDS011;5090;51.258;4.436;2023-08-06T10:38:12;10.03;;;1.37;;
10100;SDS011;5090;51.258;4.436;2023-08-06T10:40:41;10.80;;;2.23;;
10100;SDS011;5090;51.258;4.436;2023-08-06T10:43:08;10.27;;;0.97;;
10100;SDS011;5090;51.258;4.436;2023-08-06T10:45:36;7.13;;;1.33;;
10100;SDS011;5090;51.258;4.436;2023-08-06T10:48:04;6.70;;;0.97;;
10100;SDS011;5090;51.258;4.436;2023-08-06T10:50:33;9.73;;;0.97;;
10100;SDS011;5090;51.258;4.436;2023-08-06T10:53:03;2.90;;;0.90;;
10100;SDS011;5090;51.258;4.436;2023-08-06T10:55:29;8.30;;;1.57;;
10100;SDS011;5090;51.258;4.436;2023-08-06T10:57:57;6.23;;;1.20;;
10100;SDS011;5090;51.258;4.436;2023-08-06T11:00:25;5.07;;;0.90;;
10100;SDS011;5090;51.258;4.436;2023-08-06T11:02:54;6.57;;;1.03;;
10100;SDS011;5090;51.258;4.436;2023-08-06T11:05:22;3.23;;;0.60;;
10100;SDS011;5090;51.258;4.436;2023-08-06T11:07:50;5.67;;;0.90;;
10100;SDS011;5090;51.258;4.436;2023-08-06T11:10:18;4.50;;;1.00;;
10100;SDS011;5090;51.258;4.436;2023-08-06T11:12:46;8.97;;;1.10;;
10100;SDS011;5090;51.258;4.436;2023-08-06T11:15:14;7.73;;;1.10;;
10100;SDS011;5090;51.258;4.436;2023-08-06T11:17:44;5.17;;;1.23;;
10100;SDS011;5090;51.258;4.436;2023-08-06T11:20:12;7.57;;;1.00;;
10100;SDS011;5090;51.258;4.436;2023-08-06T11:22:40;8.17;;;1.70;;
10100;SDS011;5090;51.258;4.436;2023-08-06T11:25:08;10.53;;;1.73;;
10100;SDS011;5090;51.258;4.436;2023-08-06T11:27:36;9.93;;;1.93;;
10100;SDS011;5090;51.258;4.436;2023-08-06T11:30:05;11.67;;;1.60;;
10100;SDS011;5090;51.258;4.436;2023-08-06T11:32:34;6.13;;;1.13;;
10100;SDS011;5090;51.258;4.436;2023-08-06T11:35:09;5.43;;;1.13;;
10100;SDS011;5090;51.258;4.436;2023-08-06T11:37:35;10.40;;;1.20;;
10100;SDS011;5090;51.258;4.436;2023-08-06T11:40:05;7.17;;;1.57;;
10100;SDS011;5090;51.258;4.436;2023-08-06T11:42:33;6.93;;;1.20;;
10100;SDS011;5090;51.258;4.436;2023-08-06T11:45:02;5.77;;;1.20;;
10100;SDS011;5090;51.258;4.436;2023-08-06T11:47:31;6.93;;;1.47;;
10100;SDS011;5090;51.258;4.436;2023-08-06T11:49:59;6.57;;;1.53;;
10100;SDS011;5090;51.258;4.436;2023-08-06T11:52:27;6.30;;;1.40;;
10100;SDS011;5090;51.258;4.436;2023-08-06T11:57:31;9.00;;;2.23;;
10100;SDS011;5090;51.258;4.436;2023-08-06T12:00:02;12.23;;;1.70;;
10100;SDS011;5090;51.258;4.436;2023-08-06T12:02:32;5.87;;;1.30;;
10100;SDS011;5090;51.258;4.436;2023-08-06T12:05:04;6.23;;;1.60;;
10100;SDS011;5090;51.258;4.436;2023-08-06T12:07:32;8.30;;;1.40;;
10100;SDS011;5090;51.258;4.436;2023-08-06T12:10:02;4.83;;;1.30;;
10100;SDS011;5090;51.258;4.436;2023-08-06T12:12:31;7.07;;;1.47;;
10100;SDS011;5090;51.258;4.436;2023-08-06T12:14:59;6.93;;;1.53;;
10100;SDS011;5090;51.258;4.436;2023-08-06T12:17:27;10.00;;;1.57;;
10100;SDS011;5090;51.258;4.436;2023-08-06T12:19:55;4.73;;;1.07;;
10100;SDS011;5090;51.258;4.436;2023-08-06T12:22:24;9.67;;;1.77;;
10100;SDS011;5090;51.258;4.436;2023-08-06T12:24:52;6.33;;;1.57;;
10100;SDS011;5090;51.258;4.436;2023-08-06T12:27:20;10.20;;;2.20;;
10100;SDS011;5090;51.258;4.436;2023-08-06T12:29:48;13.83;;;2.27;;
10100;SDS011;5090;51.258;4.436;2023-08-06T12:32:16;11.20;;;1.80;;
10100;SDS011;5090;51.258;4.436;2023-08-06T12:34:44;9.10;;;1.80;;
10100;SDS011;5090;51.258;4.436;2023-08-06T12:37:13;5.43;;;1.43;;
10100;SDS011;5090;51.258;4.436;2023-08-06T12:39:41;5.20;;;1.30;;
10100;SDS011;5090;51.258;4.436;2023-08-06T12:42:09;4.23;;;1.00;;
10100;SDS011;5090;51.258;4.436;2023-08-06T12:44:37;5.90;;;1.27;;
10100;SDS011;5090;51.258;4.436;2023-08-06T12:47:06;8.57;;;1.77;;
10100;SDS011;5090;51.258;4.436;2023-08-06T12:49:34;5.43;;;1.10;;
10100;SDS011;5090;51.258;4.436;2023-08-06T12:52:02;6.20;;;1.23;;
10100;SDS011;5090;51.258;4.436;2023-08-06T12:54:30;3.10;;;0.90;;
10100;SDS011;5090;51.258;4.436;2023-08-06T12:56:58;4.90;;;0.97;;
10100;SDS011;5090;51.258;4.436;2023-08-06T12:59:26;8.87;;;1.10;;
10100;SDS011;5090;51.258;4.436;2023-08-06T13:01:54;8.00;;;1.40;;
10100;SDS011;5090;51.258;4.436;2023-08-06T13:04:23;9.83;;;1.60;;
10100;SDS011;5090;51.258;4.436;2023-08-06T13:06:51;7.43;;;1.63;;
10100;SDS011;5090;51.258;4.436;2023-08-06T13:09:19;7.13;;;1.27;;
10100;SDS011;5090;51.258;4.436;2023-08-06T13:11:47;7.40;;;1.10;;
10100;SDS011;5090;51.258;4.436;2023-08-06T13:14:15;2.20;;;0.67;;
10100;SDS011;5090;51.258;4.436;2023-08-06T13:16:44;5.10;;;1.20;;
10100;SDS011;5090;51.258;4.436;2023-08-06T13:19:12;7.50;;;0.60;;
10100;SDS011;5090;51.258;4.436;2023-08-06T13:24:24;2.20;;;0.50;;
10100;SDS011;5090;51.258;4.436;2023-08-06T13:26:52;3.77;;;0.93;;
10100;SDS011;5090;51.258;4.436;2023-08-06T13:29:20;5.50;;;1.00;;
10100;SDS011;5090;51.258;4.436;2023-08-06T13:31:48;4.43;;;0.90;;
10100;SDS011;5090;51.258;4.436;2023-08-06T13:34:16;5.63;;;1.63;;
10100;SDS011;5090;51.258;4.436;2023-08-06T13:36:45;5.50;;;1.07;;
10100;SDS011;5090;51.258;4.436;2023-08-06T13:39:13;6.37;;;1.30;;
10100;SDS011;5090;51.258;4.436;2023-08-06T13:41:41;7.47;;;1.33;;
10100;SDS011;5090;51.258;4.436;2023-08-06T13:44:09;7.73;;;1.10;;
10100;SDS011;5090;51.258;4.436;2023-08-06T13:46:37;6.53;;;1.20;;
10100;SDS011;5090;51.258;4.436;2023-08-06T13:49:06;6.03;;;1.73;;
10100;SDS011;5090;51.258;4.436;2023-08-06T13:51:34;6.60;;;1.50;;
10100;SDS011;5090;51.258;4.436;2023-08-06T13:54:02;8.93;;;1.30;;
10100;SDS011;5090;51.258;4.436;2023-08-06T13:56:30;5.57;;;1.33;;
10100;SDS011;5090;51.258;4.436;2023-08-06T13:58:58;5.27;;;1.20;;
10100;SDS011;5090;51.258;4.436;2023-08-06T14:01:26;6.80;;;1.40;;
10100;SDS011;5090;51.258;4.436;2023-08-06T14:03:55;5.80;;;1.40;;
10100;SDS011;5090;51.258;4.436;2023-08-06T14:06:23;5.93;;;1.90;;
10100;SDS011;5090;51.258;4.436;2023-08-06T14:08:51;7.17;;;1.50;;
10100;SDS011;5090;51.258;4.436;2023-08-06T14:11:19;9.40;;;1.43;;
10100;SDS011;5090;51.258;4.436;2023-08-06T14:13:47;7.30;;;1.40;;
10100;SDS011;5090;51.258;4.436;2023-08-06T14:16:16;11.83;;;1.87;;
10100;SDS011;5090;51.258;4.436;2023-08-06T14:18:44;8.17;;;1.97;;
10100;SDS011;5090;51.258;4.436;2023-08-06T14:21:12;16.20;;;2.13;;
10100;SDS011;5090;51.258;4.436;2023-08-06T14:23:40;9.00;;;1.30;;
10100;SDS011;5090;51.258;4.436;2023-08-06T14:26:08;8.20;;;1.37;;
10100;SDS011;5090;51.258;4.436;2023-08-06T14:28:37;9.10;;;1.43;;
10100;SDS011;5090;51.258;4.436;2023-08-06T14:31:05;9.73;;;1.30;;
10100;SDS011;5090;51.258;4.436;2023-08-06T14:33:33;7.73;;;1.33;;
10100;SDS011;5090;51.258;4.436;2023-08-06T14:36:01;7.87;;;1.40;;
10100;SDS011;5090;51.258;4.436;2023-08-06T14:38:29;10.67;;;1.50;;
10100;SDS011;5090;51.258;4.436;2023-08-06T14:40:57;6.47;;;1.20;;
10100;SDS011;5090;51.258;4.436;2023-08-06T14:43:26;8.57;;;1.93;;
10100;SDS011;5090;51.258;4.436;2023-08-06T14:45:54;8.00;;;1.90;;
10100;SDS011;5090;51.258;4.436;2023-08-06T14:48:22;13.20;;;1.93;;
10100;SDS011;5090;51.258;4.436;2023-08-06T14:50:50;8.00;;;1.27;;
10100;SDS011;5090;51.258;4.436;2023-08-06T14:53:18;5.33;;;0.93;;
10100;SDS011;5090;51.258;4.436;2023-08-06T14:55:47;8.60;;;1.97;;
10100;SDS011;5090;51.258;4.436;2023-08-06T14:58:15;11.13;;;2.13;;
10100;SDS011;5090;51.258;4.436;2023-08-06T15:00:44;11.13;;;1.60;;
10100;SDS011;5090;51.258;4.436;2023-08-06T15:03:11;11.20;;;2.00;;
10100;SDS011;5090;51.258;4.436;2023-08-06T15:05:42;14.83;;;1.93;;
10100;SDS011;5090;51.258;4.436;2023-08-06T15:08:08;6.40;;;2.07;;